createdAt,value
2018-09-08T00:00:11.878Z,11.49
2018-09-08T00:01:12.063Z,11.36
2018-09-08T00:02:12.215Z,11.43
2018-09-08T00:03:12.420Z,11.43
2018-09-08T00:04:12.620Z,11.45
2018-09-08T00:05:12.799Z,11.38
2018-09-08T00:06:12.990Z,11.43
2018-09-08T00:07:13.150Z,11.33
2018-09-08T00:08:13.353Z,11.34
2018-09-08T00:09:13.511Z,11.30
2018-09-08T00:10:13.713Z,11.33
2018-09-08T00:11:13.908Z,11.31
2018-09-08T00:12:14.072Z,11.31
2018-09-08T00:13:14.258Z,11.23
2018-09-08T00:14:14.459Z,11.18
2018-09-08T00:15:14.637Z,11.19
2018-09-08T00:16:14.821Z,11.15
2018-09-08T00:17:15.021Z,11.09
2018-09-08T00:18:15.205Z,11.22
2018-09-08T00:19:15.389Z,11.08
2018-09-08T00:20:15.563Z,11.04
2018-09-08T00:21:15.743Z,11.00
2018-09-08T00:22:15.955Z,10.97
2018-09-08T00:23:16.129Z,10.97
2018-09-08T00:24:16.284Z,10.86
2018-09-08T00:25:16.448Z,10.80
2018-09-08T00:26:16.639Z,10.83
2018-09-08T00:27:16.930Z,10.78
2018-09-08T00:28:17.010Z,10.75
2018-09-08T00:29:17.209Z,10.61
2018-09-08T00:30:17.457Z,10.57
2018-09-08T00:31:17.599Z,10.55
2018-09-08T00:32:17.756Z,10.45
2018-09-08T00:33:17.932Z,10.43
2018-09-08T00:34:18.109Z,10.46
2018-09-08T00:35:18.329Z,10.38
2018-09-08T00:36:18.483Z,10.43
2018-09-08T00:37:18.686Z,10.48
2018-09-08T00:38:18.940Z,10.48
2018-09-08T00:39:19.060Z,10.35
2018-09-08T00:40:19.279Z,10.45
2018-09-08T00:41:19.419Z,10.42
2018-09-08T00:42:19.565Z,10.46
2018-09-08T00:43:19.755Z,10.48
2018-09-08T00:44:19.916Z,10.43
2018-09-08T00:45:20.174Z,10.39
2018-09-08T00:46:20.302Z,10.31
2018-09-08T00:47:20.463Z,10.36
2018-09-08T00:48:20.692Z,10.30
2018-09-08T00:49:20.842Z,10.28
2018-09-08T00:50:20.981Z,10.31
2018-09-08T00:51:21.159Z,10.17
2018-09-08T00:52:21.363Z,10.20
2018-09-08T00:53:21.527Z,10.18
2018-09-08T00:54:21.691Z,10.08
2018-09-08T00:55:21.893Z,10.05
2018-09-08T00:56:22.090Z,10.12
2018-09-08T00:57:22.294Z,10.17
2018-09-08T00:58:22.504Z,10.09
2018-09-08T00:59:22.628Z,10.12
2018-09-08T01:00:22.810Z,9.99
2018-09-08T01:01:22.999Z,10.02
2018-09-08T01:02:23.223Z,10.06
2018-09-08T01:03:23.384Z,9.96
2018-09-08T01:04:23.572Z,9.94
2018-09-08T01:05:23.729Z,9.91
2018-09-08T01:06:23.955Z,9.90
2018-09-08T01:07:24.116Z,9.94
2018-09-08T01:08:24.312Z,9.87
2018-09-08T01:09:24.479Z,9.84
2018-09-08T01:10:24.671Z,9.90
2018-09-08T01:11:24.843Z,9.83
2018-09-08T01:12:25.058Z,9.75
2018-09-08T01:13:25.191Z,9.67
2018-09-08T01:14:25.402Z,9.72
2018-09-08T01:15:25.555Z,9.59
2018-09-08T01:16:25.724Z,9.57
2018-09-08T01:17:25.933Z,9.57
2018-09-08T01:18:26.079Z,9.50
2018-09-08T01:19:26.275Z,9.41
2018-09-08T01:20:26.488Z,9.45
2018-09-08T01:21:26.725Z,9.32
2018-09-08T01:22:26.811Z,9.40
2018-09-08T01:23:27.011Z,9.29
2018-09-08T01:24:27.179Z,9.34
2018-09-08T01:25:27.332Z,9.36
2018-09-08T01:26:27.511Z,9.23
2018-09-08T01:27:27.681Z,9.08
2018-09-08T01:28:27.861Z,9.09
2018-09-08T01:29:28.051Z,9.06
2018-09-08T01:30:28.218Z,8.96
2018-09-08T01:31:28.419Z,9.03
2018-09-08T01:32:28.600Z,8.92
2018-09-08T01:33:28.825Z,9.04
2018-09-08T01:34:28.970Z,8.92
2018-09-08T01:35:29.165Z,8.89
2018-09-08T01:36:29.348Z,8.92
2018-09-08T01:37:29.575Z,8.89
2018-09-08T01:38:29.723Z,8.96
2018-09-08T01:39:29.893Z,8.85
2018-09-08T01:40:30.091Z,8.86
2018-09-08T01:41:30.248Z,8.77
2018-09-08T01:42:30.415Z,8.86
2018-09-08T01:43:30.623Z,8.89
2018-09-08T01:44:30.788Z,8.74
2018-09-08T01:45:30.974Z,8.56
2018-09-08T01:46:31.215Z,8.59
2018-09-08T01:47:31.253Z,8.55
2018-09-08T01:48:31.428Z,8.55
2018-09-08T01:49:31.613Z,8.57
2018-09-08T01:50:31.797Z,8.52
2018-09-08T01:51:32.040Z,8.60
2018-09-08T01:52:32.157Z,8.59
2018-09-08T01:53:32.321Z,8.56
2018-09-08T01:54:32.494Z,8.52
2018-09-08T01:55:32.695Z,8.49
2018-09-08T01:56:32.874Z,8.47
2018-09-08T01:57:33.047Z,8.52
2018-09-08T01:58:33.221Z,8.41
2018-09-08T01:59:33.419Z,8.52
2018-09-08T02:00:33.572Z,8.44
2018-09-08T02:01:33.782Z,8.39
2018-09-08T02:02:33.959Z,8.35
2018-09-08T02:03:34.144Z,8.32
2018-09-08T02:04:34.270Z,8.35
2018-09-08T02:05:34.496Z,8.39
2018-09-08T02:06:34.681Z,8.37
2018-09-08T02:07:34.856Z,8.35
2018-09-08T02:08:34.999Z,8.42
2018-09-08T02:09:35.237Z,8.39
2018-09-08T02:10:35.431Z,8.32
2018-09-08T02:11:35.624Z,8.32
2018-09-08T02:12:35.776Z,8.35
2018-09-08T02:13:35.964Z,8.32
2018-09-08T02:14:36.164Z,8.21
2018-09-08T02:15:36.332Z,8.10
2018-09-08T02:16:36.523Z,8.16
2018-09-08T02:17:36.715Z,8.21
2018-09-08T02:18:36.932Z,8.24
2018-09-08T02:19:37.095Z,8.10
2018-09-08T02:20:37.556Z,8.26
2018-09-08T02:21:37.483Z,8.24
2018-09-08T02:22:37.671Z,8.32
2018-09-08T02:23:37.843Z,8.29
2018-09-08T02:24:38.009Z,8.32
2018-09-08T02:25:38.215Z,8.17
2018-09-08T02:26:38.387Z,8.28
2018-09-08T02:27:38.608Z,8.26
2018-09-08T02:28:38.735Z,8.28
2018-09-08T02:29:38.917Z,8.17
2018-09-08T02:30:39.282Z,8.19
2018-09-08T02:31:39.321Z,8.24
2018-09-08T02:32:39.493Z,8.19
2018-09-08T02:33:39.661Z,8.05
2018-09-08T02:34:39.817Z,8.04
2018-09-08T02:35:39.996Z,8.13
2018-09-08T02:36:40.176Z,8.17
2018-09-08T02:37:40.465Z,8.23
2018-09-08T02:38:40.627Z,8.23
2018-09-08T02:39:40.798Z,8.21
2018-09-08T02:40:40.987Z,8.26
2018-09-08T02:41:41.200Z,8.38
2018-09-08T02:42:41.353Z,8.41
2018-09-08T02:43:41.510Z,8.38
2018-09-08T02:44:41.769Z,8.39
2018-09-08T02:45:41.855Z,8.37
2018-09-08T02:46:42.254Z,8.37
2018-09-08T02:47:42.240Z,8.38
2018-09-08T02:48:42.426Z,8.41
2018-09-08T02:49:42.625Z,8.38
2018-09-08T02:50:42.844Z,8.35
2018-09-08T02:51:42.977Z,8.29
2018-09-08T02:52:43.291Z,8.24
2018-09-08T02:53:43.328Z,8.31
2018-09-08T02:54:43.541Z,8.28
2018-09-08T02:55:43.701Z,8.39
2018-09-08T02:56:43.887Z,8.35
2018-09-08T02:57:45.031Z,8.24
2018-09-08T02:58:44.203Z,8.35
2018-09-08T02:59:44.408Z,8.37
2018-09-08T03:00:44.551Z,8.35
2018-09-08T03:01:44.842Z,8.35
2018-09-08T03:02:44.911Z,8.34
2018-09-08T03:03:45.206Z,8.37
2018-09-08T03:04:45.269Z,8.32
2018-09-08T03:05:45.460Z,8.35
2018-09-08T03:06:45.611Z,8.29
2018-09-08T03:07:45.940Z,8.34
2018-09-08T03:08:45.990Z,8.37
2018-09-08T03:09:46.162Z,8.34
2018-09-08T03:10:46.468Z,8.34
2018-09-08T03:11:46.618Z,8.24
2018-09-08T03:12:46.731Z,8.38
2018-09-08T03:13:46.924Z,8.21
2018-09-08T03:14:47.092Z,8.26
2018-09-08T03:15:47.355Z,8.23
2018-09-08T03:16:47.442Z,8.38
2018-09-08T03:17:47.641Z,8.39
2018-09-08T03:18:47.853Z,8.38
2018-09-08T03:19:48.025Z,8.35
2018-09-08T03:20:48.242Z,8.37
2018-09-08T03:21:48.404Z,8.41
2018-09-08T03:22:48.785Z,8.38
2018-09-08T03:23:48.752Z,8.39
2018-09-08T03:24:48.935Z,8.34
2018-09-08T03:25:49.110Z,8.42
2018-09-08T03:26:49.341Z,8.42
2018-09-08T03:27:49.546Z,8.42
2018-09-08T03:28:49.761Z,8.41
2018-09-08T03:29:49.930Z,8.42
2018-09-08T03:30:50.212Z,8.28
2018-09-08T03:31:50.318Z,8.42
2018-09-08T03:32:50.510Z,8.38
2018-09-08T03:33:50.831Z,8.41
2018-09-08T03:34:50.867Z,8.42
2018-09-08T03:35:51.107Z,8.42
2018-09-08T03:36:51.249Z,8.53
2018-09-08T03:37:51.387Z,8.57
2018-09-08T03:38:51.609Z,8.55
2018-09-08T03:39:51.741Z,8.49
2018-09-08T03:40:51.912Z,8.42
2018-09-08T03:41:52.102Z,8.31
2018-09-08T03:42:52.309Z,8.47
2018-09-08T03:43:52.503Z,8.35
2018-09-08T03:44:52.695Z,8.38
2018-09-08T03:45:52.886Z,8.44
2018-09-08T03:46:53.160Z,8.42
2018-09-08T03:47:53.289Z,8.42
2018-09-08T03:48:53.595Z,8.46
2018-09-08T03:49:53.674Z,8.42
2018-09-08T03:50:53.921Z,8.41
2018-09-08T03:51:54.087Z,8.46
2018-09-08T03:52:54.201Z,8.42
2018-09-08T03:53:54.410Z,8.41
2018-09-08T03:54:54.626Z,8.53
2018-09-08T03:55:54.778Z,8.46
2018-09-08T03:56:55.295Z,8.53
2018-09-08T03:57:55.132Z,8.49
2018-09-08T03:58:55.340Z,8.49
2018-09-08T03:59:55.824Z,8.57
2018-09-08T04:00:55.692Z,8.57
2018-09-08T04:01:55.830Z,8.59
2018-09-08T04:02:56.104Z,8.63
2018-09-08T04:03:56.268Z,8.62
2018-09-08T04:04:56.308Z,8.68
2018-09-08T04:05:56.475Z,8.67
2018-09-08T04:06:56.698Z,8.63
2018-09-08T04:07:56.936Z,8.56
2018-09-08T04:08:57.141Z,8.52
2018-09-08T04:09:57.266Z,8.41
2018-09-08T04:10:57.445Z,8.46
2018-09-08T04:11:58.560Z,8.56
2018-09-08T04:12:57.983Z,8.49
2018-09-08T04:13:58.260Z,8.50
2018-09-08T04:14:58.980Z,8.49
2018-09-08T04:15:58.481Z,8.44
2018-09-08T04:16:59.123Z,8.47
2018-09-08T04:17:59.059Z,8.50
2018-09-08T04:18:58.981Z,8.42
2018-09-08T04:19:59.127Z,8.50
2018-09-08T04:20:59.303Z,8.39
2018-09-08T04:21:59.472Z,8.29
2018-09-08T04:22:59.685Z,8.28
2018-09-08T04:23:59.870Z,8.35
2018-09-08T04:25:00.070Z,8.24
2018-09-08T04:26:00.276Z,8.21
2018-09-08T04:27:00.472Z,8.16
2018-09-08T04:28:00.674Z,8.16
2018-09-08T04:29:00.778Z,8.23
2018-09-08T04:30:00.998Z,8.35
2018-09-08T04:31:01.133Z,8.24
2018-09-08T04:32:01.350Z,8.35
2018-09-08T04:33:01.514Z,8.38
2018-09-08T04:34:01.664Z,8.34
2018-09-08T04:35:01.936Z,8.41
2018-09-08T04:36:02.078Z,8.28
2018-09-08T04:37:02.299Z,8.28
2018-09-08T04:38:02.438Z,8.28
2018-09-08T04:39:02.639Z,8.28
2018-09-08T04:40:02.792Z,8.34
2018-09-08T04:41:03.020Z,8.21
2018-09-08T04:42:03.104Z,8.24
2018-09-08T04:43:03.299Z,8.21
2018-09-08T04:44:03.484Z,8.06
2018-09-08T04:45:03.686Z,8.09
2018-09-08T04:46:03.794Z,8.04
2018-09-08T04:47:04.029Z,8.02
2018-09-08T04:48:04.261Z,8.01
2018-09-08T04:49:04.452Z,7.94
2018-09-08T04:50:04.585Z,8.02
2018-09-08T04:51:04.825Z,7.91
2018-09-08T04:52:05.009Z,7.91
2018-09-08T04:53:05.183Z,7.83
2018-09-08T04:54:05.389Z,7.71
2018-09-08T04:55:05.686Z,7.69
2018-09-08T04:56:05.807Z,7.55
2018-09-08T04:57:05.985Z,7.50
2018-09-08T04:58:06.261Z,7.39
2018-09-08T04:59:06.452Z,7.37
2018-09-08T05:00:06.550Z,7.42
2018-09-08T05:01:06.789Z,7.42
2018-09-08T05:02:06.906Z,7.52
2018-09-08T05:03:07.096Z,7.54
2018-09-08T05:04:07.232Z,7.47
2018-09-08T05:05:07.431Z,7.61
2018-09-08T05:06:07.627Z,7.68
2018-09-08T05:07:07.888Z,7.60
2018-09-08T05:08:08.101Z,7.76
2018-09-08T05:09:08.288Z,7.77
2018-09-08T05:10:08.378Z,7.81
2018-09-08T05:11:08.584Z,7.88
2018-09-08T05:12:08.776Z,7.95
2018-09-08T05:13:08.965Z,7.96
2018-09-08T05:14:09.120Z,8.05
2018-09-08T05:15:09.305Z,7.83
2018-09-08T05:16:09.459Z,7.78
2018-09-08T05:17:10.506Z,7.81
2018-09-08T05:18:09.865Z,7.78
2018-09-08T05:19:10.069Z,7.87
2018-09-08T05:20:10.302Z,7.91
2018-09-08T05:21:10.438Z,7.91
2018-09-08T05:22:10.643Z,7.96
2018-09-08T05:23:10.783Z,7.98
2018-09-08T05:24:10.945Z,7.94
2018-09-08T05:25:11.166Z,7.88
2018-09-08T05:26:11.425Z,7.91
2018-09-08T05:27:11.553Z,7.76
2018-09-08T05:28:11.726Z,7.87
2018-09-08T05:29:11.994Z,7.87
2018-09-08T05:30:12.099Z,7.83
2018-09-08T05:31:12.326Z,7.96
2018-09-08T05:32:12.423Z,7.91
2018-09-08T05:33:12.608Z,7.95
2018-09-08T05:34:12.845Z,8.04
2018-09-08T05:35:12.958Z,8.17
2018-09-08T05:36:13.149Z,8.17
2018-09-08T05:37:13.454Z,8.19
2018-09-08T05:38:13.512Z,8.21
2018-09-08T05:39:13.683Z,8.34
2018-09-08T05:40:13.853Z,8.44
2018-09-08T05:41:14.120Z,8.59
2018-09-08T05:42:14.219Z,8.53
2018-09-08T05:43:14.461Z,8.56
2018-09-08T05:44:14.578Z,8.57
2018-09-08T05:45:14.744Z,8.57
2018-09-08T05:46:14.948Z,8.68
2018-09-08T05:47:15.107Z,8.71
2018-09-08T05:48:15.319Z,8.62
2018-09-08T05:49:15.555Z,8.70
2018-09-08T05:50:15.700Z,8.67
2018-09-08T05:51:15.958Z,8.78
2018-09-08T05:52:16.084Z,8.81
2018-09-08T05:53:16.346Z,8.72
2018-09-08T05:54:16.456Z,8.72
2018-09-08T05:55:16.669Z,8.83
2018-09-08T05:56:16.840Z,8.90
2018-09-08T05:57:17.040Z,8.98
2018-09-08T05:58:17.220Z,8.93
2018-09-08T05:59:17.405Z,8.86
2018-09-08T06:00:17.588Z,8.80
2018-09-08T06:01:17.758Z,8.86
2018-09-08T06:02:17.967Z,8.96
2018-09-08T06:03:18.128Z,9.03
2018-09-08T06:04:18.320Z,9.12
2018-09-08T06:05:18.508Z,9.12
2018-09-08T06:06:18.662Z,9.22
2018-09-08T06:07:18.875Z,9.29
2018-09-08T06:08:19.052Z,9.41
2018-09-08T06:09:19.231Z,9.27
2018-09-08T06:10:19.517Z,9.27
2018-09-08T06:11:19.585Z,9.32
2018-09-08T06:12:19.776Z,9.42
2018-09-08T06:13:19.962Z,9.60
2018-09-08T06:14:20.111Z,9.65
2018-09-08T06:15:20.302Z,9.73
2018-09-08T06:16:20.472Z,9.73
2018-09-08T06:17:20.671Z,9.87
2018-09-08T06:18:20.932Z,9.91
2018-09-08T06:19:21.040Z,9.98
2018-09-08T06:20:21.225Z,9.78
2018-09-08T06:21:21.410Z,9.80
2018-09-08T06:22:21.590Z,10.08
2018-09-08T06:23:21.775Z,10.12
2018-09-08T06:24:21.999Z,10.38
2018-09-08T06:25:22.208Z,10.55
2018-09-08T06:26:23.037Z,10.78
2018-09-08T06:27:22.502Z,10.87
2018-09-08T06:28:22.667Z,11.13
2018-09-08T06:29:22.845Z,11.22
2018-09-08T06:30:23.003Z,11.41
2018-09-08T06:31:23.192Z,11.52
2018-09-08T06:32:23.371Z,11.55
2018-09-08T06:33:23.606Z,11.33
2018-09-08T06:34:23.730Z,11.55
2018-09-08T06:35:23.995Z,11.56
2018-09-08T06:36:24.121Z,11.88
2018-09-08T06:37:24.304Z,11.99
2018-09-08T06:38:24.499Z,11.91
2018-09-08T06:39:24.686Z,11.76
2018-09-08T06:40:24.872Z,11.67
2018-09-08T06:41:25.062Z,11.33
2018-09-08T06:42:25.243Z,11.11
2018-09-08T06:43:25.425Z,10.91
2018-09-08T06:44:25.599Z,10.75
2018-09-08T06:45:25.833Z,10.46
2018-09-08T06:46:25.961Z,10.36
2018-09-08T06:47:26.162Z,10.38
2018-09-08T06:48:26.332Z,10.20
2018-09-08T06:49:26.532Z,10.02
2018-09-08T06:50:26.739Z,10.01
2018-09-08T06:51:26.910Z,9.93
2018-09-08T06:52:27.119Z,9.94
2018-09-08T06:53:27.265Z,10.02
2018-09-08T06:54:27.439Z,10.23
2018-09-08T06:55:27.653Z,10.35
2018-09-08T06:56:27.808Z,10.23
2018-09-08T06:57:27.988Z,10.12
2018-09-08T06:58:28.208Z,9.99
2018-09-08T06:59:28.336Z,9.87
2018-09-08T07:00:28.550Z,9.73
2018-09-08T07:01:28.743Z,9.70
2018-09-08T07:02:28.902Z,9.75
2018-09-08T07:03:29.157Z,9.93
2018-09-08T07:04:29.232Z,9.99
2018-09-08T07:05:29.439Z,10.08
2018-09-08T07:06:29.642Z,10.03
2018-09-08T07:07:29.799Z,10.01
2018-09-08T07:08:29.980Z,10.20
2018-09-08T07:09:30.205Z,10.14
2018-09-08T07:10:30.345Z,10.30
2018-09-08T07:11:30.539Z,10.41
2018-09-08T07:12:30.695Z,10.54
2018-09-08T07:13:30.876Z,10.95
2018-09-08T07:14:31.051Z,10.93
2018-09-08T07:15:31.247Z,10.76
2018-09-08T07:16:31.443Z,10.62
2018-09-08T07:17:31.666Z,10.78
2018-09-08T07:18:31.802Z,10.98
2018-09-08T07:19:32.046Z,11.25
2018-09-08T07:20:32.179Z,11.31
2018-09-08T07:21:32.370Z,11.27
2018-09-08T07:22:32.601Z,11.45
2018-09-08T07:23:32.749Z,11.55
2018-09-08T07:24:32.900Z,11.55
2018-09-08T07:25:33.125Z,11.67
2018-09-08T07:26:33.277Z,11.73
2018-09-08T07:27:33.458Z,11.58
2018-09-08T07:28:33.644Z,11.45
2018-09-08T07:29:33.830Z,11.80
2018-09-08T07:30:34.011Z,11.79
2018-09-08T07:31:34.212Z,12.08
2018-09-08T07:32:34.414Z,12.33
2018-09-08T07:33:34.585Z,12.69
2018-09-08T07:34:34.800Z,13.01
2018-09-08T07:35:35.353Z,13.19
2018-09-08T07:38:19.412Z,13.60
2018-09-08T07:39:19.693Z,14.03
2018-09-08T07:40:20.995Z,14.21
2018-09-08T07:41:20.605Z,14.52
2018-09-08T07:42:20.066Z,14.56
2018-09-08T07:43:20.208Z,14.63
2018-09-08T07:44:20.263Z,14.71
2018-09-08T07:45:21.201Z,14.73
2018-09-08T07:46:20.991Z,14.87
2018-09-08T07:47:22.242Z,15.26
2018-09-08T07:48:21.061Z,15.48
2018-09-08T07:49:21.307Z,15.54
2018-09-08T07:50:21.464Z,15.56
2018-09-08T07:51:21.591Z,15.65
2018-09-08T07:52:21.780Z,15.72
2018-09-08T07:53:22.752Z,15.68
2018-09-08T07:54:22.186Z,15.70
2018-09-08T07:55:22.463Z,15.48
2018-09-08T07:56:23.001Z,15.30
2018-09-08T07:57:22.850Z,15.22
2018-09-08T07:58:22.847Z,15.52
2018-09-08T07:59:23.069Z,15.62
2018-09-08T08:00:23.191Z,15.72
2018-09-08T08:01:23.441Z,15.87
2018-09-08T08:02:23.689Z,16.09
2018-09-08T08:03:23.783Z,15.93
2018-09-08T08:04:24.791Z,16.10
2018-09-08T08:05:24.243Z,15.95
2018-09-08T08:06:24.685Z,15.60
2018-09-08T08:07:24.528Z,15.70
2018-09-08T08:08:24.774Z,16.06
2018-09-08T08:09:25.808Z,15.93
2018-09-08T08:10:25.086Z,16.09
2018-09-08T08:11:25.390Z,16.28
2018-09-08T08:12:25.512Z,16.33
2018-09-08T08:13:25.692Z,16.39
2018-09-08T08:14:26.023Z,16.13
2018-09-08T08:15:26.103Z,16.34
2018-09-08T08:16:27.234Z,16.33
2018-09-08T08:17:26.472Z,16.54
2018-09-08T08:18:26.664Z,16.54
2018-09-08T08:19:26.859Z,16.69
2018-09-08T08:20:27.092Z,16.80
2018-09-08T08:21:27.268Z,16.77
2018-09-08T08:22:27.441Z,16.99
2018-09-08T08:23:27.670Z,17.16
2018-09-08T08:24:27.823Z,16.94
2018-09-08T08:25:28.006Z,16.90
2018-09-08T08:26:28.195Z,16.95
2018-09-08T08:27:28.373Z,17.12
2018-09-08T08:28:28.546Z,17.07
2018-09-08T08:29:28.750Z,16.95
2018-09-08T08:30:28.927Z,16.90
2018-09-08T08:31:29.106Z,16.99
2018-09-08T08:32:29.295Z,17.06
2018-09-08T08:33:29.566Z,16.99
2018-09-08T08:34:29.714Z,16.99
2018-09-08T08:35:29.872Z,17.22
2018-09-08T08:36:30.030Z,17.22
2018-09-08T08:37:30.265Z,17.63
2018-09-08T08:38:30.506Z,17.62
2018-09-08T08:39:30.620Z,17.91
2018-09-08T08:40:30.821Z,17.71
2018-09-08T08:41:31.019Z,17.72
2018-09-08T08:42:31.230Z,17.68
2018-09-08T08:43:31.419Z,17.83
2018-09-08T08:44:31.608Z,17.63
2018-09-08T08:45:31.794Z,17.63
2018-09-08T08:46:31.982Z,17.79
2018-09-08T08:47:32.163Z,17.96
2018-09-08T08:48:32.352Z,18.05
2018-09-08T08:49:32.610Z,18.17
2018-09-08T08:50:32.696Z,18.26
2018-09-08T08:51:32.897Z,18.30
2018-09-08T08:52:33.141Z,18.39
2018-09-08T08:53:33.282Z,18.05
2018-09-08T08:54:33.441Z,18.20
2018-09-08T08:55:33.646Z,17.78
2018-09-08T08:56:33.822Z,18.08
2018-09-08T08:57:34.012Z,18.12
2018-09-08T08:58:34.257Z,18.28
2018-09-08T08:59:34.380Z,18.23
2018-09-08T09:00:34.519Z,18.31
2018-09-08T09:01:34.704Z,18.17
2018-09-08T09:02:34.870Z,18.02
2018-09-08T09:03:35.113Z,17.87
2018-09-08T09:04:35.251Z,17.87
2018-09-08T09:05:35.464Z,18.01
2018-09-08T09:06:35.613Z,17.83
2018-09-08T09:07:36.229Z,17.78
2018-09-08T09:08:36.382Z,17.99
2018-09-08T09:09:36.170Z,18.21
2018-09-08T09:10:36.384Z,18.52
2018-09-08T09:11:36.638Z,18.39
2018-09-08T09:12:36.992Z,18.20
2018-09-08T09:13:37.080Z,18.21
2018-09-08T09:14:37.434Z,18.28
2018-09-08T09:15:37.379Z,18.49
2018-09-08T09:16:37.575Z,18.45
2018-09-08T09:17:37.794Z,18.91
2018-09-08T09:18:38.384Z,19.09
2018-09-08T09:19:38.145Z,19.12
2018-09-08T09:20:38.341Z,19.34
2018-09-08T09:21:38.556Z,19.39
2018-09-08T09:22:38.736Z,19.26
2018-09-08T09:23:38.918Z,19.04
2018-09-08T09:24:39.517Z,18.98
2018-09-08T09:25:39.272Z,18.67
2018-09-08T09:26:39.472Z,18.57
2018-09-08T09:27:39.668Z,18.64
2018-09-08T09:28:39.924Z,18.70
2018-09-08T09:29:40.102Z,18.75
2018-09-08T09:30:40.255Z,18.97
2018-09-08T09:31:40.420Z,18.96
2018-09-08T09:32:40.678Z,18.46
2018-09-08T09:33:40.880Z,18.88
2018-09-08T09:34:41.015Z,18.85
2018-09-08T09:35:41.209Z,18.85
2018-09-08T09:36:41.424Z,18.67
2018-09-08T09:37:41.596Z,18.64
2018-09-08T09:38:41.802Z,18.71
2018-09-08T09:39:41.983Z,18.45
2018-09-08T09:40:42.216Z,18.52
2018-09-08T09:41:42.366Z,18.58
2018-09-08T09:42:42.574Z,18.48
2018-09-08T09:43:42.819Z,18.51
2018-09-08T09:44:42.908Z,18.60
2018-09-08T09:45:43.132Z,18.45
2018-09-08T09:46:43.309Z,18.67
2018-09-08T09:47:43.484Z,18.74
2018-09-08T09:48:43.705Z,18.64
2018-09-08T09:49:43.860Z,18.57
2018-09-08T09:50:44.057Z,18.68
2018-09-08T09:51:44.262Z,18.83
2018-09-08T09:52:44.486Z,18.75
2018-09-08T09:53:44.705Z,18.98
2018-09-08T09:54:44.782Z,18.93
2018-09-08T09:55:44.968Z,18.89
2018-09-08T09:56:45.201Z,18.70
2018-09-08T09:57:45.372Z,18.86
2018-09-08T09:58:45.546Z,18.98
2018-09-08T09:59:45.791Z,19.23
2018-09-08T10:00:45.910Z,19.53
2018-09-08T10:01:46.111Z,19.34
2018-09-08T10:02:46.309Z,19.50
2018-09-08T10:03:46.481Z,19.56
2018-09-08T10:04:46.694Z,19.45
2018-09-08T10:05:46.966Z,19.20
2018-09-08T10:06:47.111Z,19.15
2018-09-08T10:07:47.319Z,19.04
2018-09-08T10:08:47.481Z,19.07
2018-09-08T10:09:47.652Z,18.82
2018-09-08T10:10:47.831Z,18.91
2018-09-08T10:11:48.025Z,18.97
2018-09-08T10:12:48.195Z,18.86
2018-09-08T10:13:48.411Z,19.19
2018-09-08T10:14:48.590Z,19.47
2018-09-08T10:15:48.779Z,19.57
2018-09-08T10:16:48.981Z,19.42
2018-09-08T10:17:49.233Z,19.42
2018-09-08T10:18:49.371Z,19.39
2018-09-08T10:19:49.566Z,19.35
2018-09-08T10:20:49.745Z,19.27
2018-09-08T10:21:49.976Z,19.27
2018-09-08T10:22:50.104Z,19.44
2018-09-08T10:24:04.341Z,19.45
2018-09-08T10:24:50.485Z,19.31
2018-09-08T10:25:50.734Z,19.24
2018-09-08T10:26:50.881Z,19.35
2018-09-08T10:27:51.072Z,19.32
2018-09-08T10:28:51.265Z,19.35
2018-09-08T10:29:51.895Z,19.41
2018-09-08T10:30:51.640Z,19.47
2018-09-08T10:31:52.153Z,19.56
2018-09-08T10:32:52.037Z,19.81
2018-09-08T10:33:52.217Z,19.92
2018-09-08T10:34:52.533Z,19.94
2018-09-08T10:35:52.613Z,19.89
2018-09-08T10:36:52.819Z,19.77
2018-09-08T10:37:53.019Z,19.87
2018-09-08T10:38:53.193Z,19.92
2018-09-08T10:39:53.395Z,20.08
2018-09-08T10:40:53.598Z,20.11
2018-09-08T10:41:53.817Z,20.14
2018-09-08T10:42:53.994Z,20.19
2018-09-08T10:43:54.187Z,20.22
2018-09-08T10:44:54.405Z,20.25
2018-09-08T10:45:54.582Z,20.26
2018-09-08T10:46:54.752Z,20.23
2018-09-08T10:47:54.937Z,20.22
2018-09-08T10:48:55.129Z,20.53
2018-09-08T10:49:55.320Z,20.37
2018-09-08T10:50:55.628Z,20.52
2018-09-08T10:51:55.688Z,20.68
2018-09-08T10:52:55.867Z,20.71
2018-09-08T10:53:56.075Z,20.80
2018-09-08T10:54:56.427Z,20.93
2018-09-08T10:55:56.436Z,20.86
2018-09-08T10:56:56.638Z,20.55
2018-09-08T10:57:56.957Z,20.29
2018-09-08T10:58:57.039Z,19.79
2018-09-08T10:59:57.219Z,19.45
2018-09-08T11:00:57.396Z,19.59
2018-09-08T11:01:57.720Z,19.71
2018-09-08T11:02:57.772Z,19.79
2018-09-08T11:03:57.924Z,19.82
2018-09-08T11:04:58.114Z,19.77
2018-09-08T11:05:58.303Z,19.97
2018-09-08T11:06:58.538Z,20.00
2018-09-08T11:07:58.769Z,19.81
2018-09-08T11:08:58.833Z,19.93
2018-09-08T11:09:59.018Z,19.89
2018-09-08T11:10:59.202Z,20.04
2018-09-08T11:11:59.396Z,20.18
2018-09-08T11:12:59.664Z,20.36
2018-09-08T11:13:59.771Z,20.63
2018-09-08T11:14:59.999Z,20.61
2018-09-08T11:16:00.222Z,20.53
2018-09-08T11:17:00.372Z,20.56
2018-09-08T11:18:00.654Z,20.39
2018-09-08T11:19:00.728Z,20.56
2018-09-08T11:20:00.898Z,20.50
2018-09-08T11:21:01.095Z,20.42
2018-09-08T11:22:01.265Z,20.52
2018-09-08T11:23:01.491Z,20.61
2018-09-08T11:24:01.685Z,20.55
2018-09-08T11:25:01.847Z,20.25
2018-09-08T11:26:02.088Z,20.27
2018-09-08T11:27:02.218Z,20.23
2018-09-08T11:28:02.401Z,20.32
2018-09-08T11:29:02.592Z,20.37
2018-09-08T11:30:02.751Z,20.52
2018-09-08T11:31:02.997Z,20.33
2018-09-08T11:32:03.159Z,20.37
2018-09-08T11:33:03.323Z,20.39
2018-09-08T11:34:03.523Z,20.58
2018-09-08T11:35:03.737Z,20.58
2018-09-08T11:36:03.926Z,20.60
2018-09-08T11:37:04.094Z,20.60
2018-09-08T11:38:04.287Z,20.56
2018-09-08T11:39:04.452Z,20.34
2018-09-08T11:40:04.640Z,20.29
2018-09-08T11:41:04.992Z,20.27
2018-09-08T11:42:05.088Z,20.19
2018-09-08T11:43:05.242Z,20.11
2018-09-08T11:44:05.436Z,20.08
2018-09-08T11:45:05.714Z,20.33
2018-09-08T11:46:05.830Z,20.29
2018-09-08T11:47:06.037Z,20.53
2018-09-08T11:48:06.231Z,20.55
2018-09-08T11:49:06.445Z,20.56
2018-09-08T11:50:06.607Z,20.55
2018-09-08T11:51:06.813Z,20.65
2018-09-08T11:52:06.978Z,20.90
2018-09-08T11:53:07.141Z,20.98
2018-09-08T11:54:07.377Z,20.86
2018-09-08T11:55:07.554Z,20.79
2018-09-08T11:56:07.696Z,20.90
2018-09-08T11:57:07.884Z,20.92
2018-09-08T11:58:08.078Z,20.97
2018-09-08T11:59:08.328Z,21.11
2018-09-08T12:00:08.464Z,21.25
2018-09-08T12:01:08.767Z,21.51
2018-09-08T12:02:08.941Z,21.82
2018-09-08T12:03:09.352Z,21.97
2018-09-08T12:04:09.234Z,22.04
2018-09-08T12:05:09.414Z,22.30
2018-09-08T12:06:09.588Z,22.31
2018-09-08T12:07:09.780Z,22.22
2018-09-08T12:08:10.196Z,21.96
2018-09-08T12:09:10.216Z,22.18
2018-09-08T12:10:10.391Z,22.03
2018-09-08T12:11:10.638Z,21.97
2018-09-08T12:12:10.763Z,22.07
2018-09-08T12:13:10.958Z,22.19
2018-09-08T12:14:11.138Z,22.11
2018-09-08T12:15:11.323Z,22.03
2018-09-08T12:16:11.882Z,22.09
2018-09-08T12:17:11.742Z,22.03
2018-09-08T12:18:11.870Z,21.77
2018-09-08T12:19:12.145Z,21.53
2018-09-08T12:20:12.266Z,21.60
2018-09-08T12:21:12.404Z,21.34
2018-09-08T12:22:12.636Z,21.38
2018-09-08T12:23:12.794Z,21.67
2018-09-08T12:24:12.970Z,21.53
2018-09-08T12:25:13.162Z,21.50
2018-09-08T12:26:13.380Z,21.59
2018-09-08T12:27:13.542Z,21.66
2018-09-08T12:28:13.729Z,21.67
2018-09-08T12:29:13.942Z,21.80
2018-09-08T12:30:14.100Z,21.71
2018-09-08T12:31:15.109Z,21.96
2018-09-08T12:32:14.592Z,21.97
2018-09-08T12:33:14.687Z,21.98
2018-09-08T12:34:14.872Z,21.80
2018-09-08T12:35:15.076Z,21.32
2018-09-08T12:36:15.245Z,21.41
2018-09-08T12:37:15.619Z,21.55
2018-09-08T12:38:15.655Z,21.58
2018-09-08T12:39:15.840Z,21.53
2018-09-08T12:40:16.068Z,21.55
2018-09-08T12:41:16.205Z,21.43
2018-09-08T12:42:16.397Z,21.56
2018-09-08T12:43:16.606Z,21.65
2018-09-08T12:44:16.850Z,21.77
2018-09-08T12:45:16.985Z,21.66
2018-09-08T12:46:17.182Z,21.85
2018-09-08T12:47:17.428Z,22.03
2018-09-08T12:48:17.577Z,21.98
2018-09-08T12:49:17.815Z,21.77
2018-09-08T12:50:17.983Z,21.78
2018-09-08T12:51:18.171Z,21.96
2018-09-08T12:52:18.386Z,21.94
2018-09-08T12:53:18.611Z,22.07
2018-09-08T12:54:18.810Z,22.07
2018-09-08T12:55:18.967Z,22.04
2018-09-08T12:56:19.121Z,21.90
2018-09-08T12:57:19.341Z,21.80
2018-09-08T12:58:19.570Z,21.82
2018-09-08T12:59:19.749Z,21.90
2018-09-08T13:00:19.945Z,21.97
2018-09-08T13:01:20.092Z,21.93
2018-09-08T13:02:20.337Z,21.97
2018-09-08T13:03:20.535Z,22.18
2018-09-08T13:04:20.694Z,22.07
2018-09-08T13:05:20.852Z,21.97
2018-09-08T13:06:21.063Z,21.85
2018-09-08T13:07:21.238Z,21.96